Data for 05/04/2013

Time Sea-Level Adjusted Pressure Absolute Pressure Temperature Relative Humidity Dew Point Precipitation   
(mb) (inHg) (mb) (inHg) (C) (F) (%) (C) (F) (mm) (in)
00:05 1026 30.3 855 25.25 4 39.2 92 2.7 36.9 0 0
00:10 1026 30.3 855 25.25 4 39.2 91 2.7 36.9 0 0
00:15 1026 30.3 855 25.25 4 39.3 90 2.6 36.7 0 0
00:20 1026 30.3 855 25.25 4 39.3 91 2.7 36.9 0 0
00:25 1026 30.3 855 25.25 4 39.3 91 2.7 36.9 0 0
00:30 1026 30.3 855 25.25 4 39.2 91 2.7 36.9 0 0
00:35 1026 30.3 855 25.25 4 39.2 92 2.8 37 0 0
00:40 1026 30.3 855 25.25 3.9 39.1 91 2.7 36.8 0 0
00:45 1026 30.3 855 25.25 3.9 39.1 91 2.5 36.6 0 0
00:50 1026 30.3 855 25.25 3.9 39 91 2.6 36.7 0 0
00:55 1026 30.3 855 25.25 3.9 39 92 2.7 36.9 0 0
01:00 1026 30.3 855 25.25 3.8 38.9 93 2.8 37.1 0 0
01:05 1026 30.3 855 25.25 3.8 38.8 94 2.8 37.1 0 0
01:10 1026 30.3 855 25.25 3.7 38.6 95 2.9 37.2 .4 0.016
01:15 1026 30.3 855 25.25 3.6 38.5 95 2.8 37.1 0 0
01:20 1026 30.3 855 25.25 3.6 38.5 95 2.8 37.1 0 0
01:25 1026 30.3 855 25.25 3.6 38.4 95 2.8 37.1 0 0
01:30 1026 30.3 855 25.25 3.6 38.4 95 2.9 37.2 0 0
01:35 1026 30.3 855 25.25 3.5 38.3 96 2.9 37.3 0 0
01:40 1026 30.3 855 25.25 3.5 38.3 96 2.9 37.3 0 0
01:45 1026 30.3 855 25.25 3.5 38.2 96 2.8 37.1 0 0
01:50 1026 30.3 855 25.25 3.4 38.2 96 2.8 37.1 0 0
01:55 1026 30.3 855 25.25 3.4 38.2 96 2.9 37.2 0 0
02:00 1026 30.3 855 25.25 3.4 38.2 96 2.9 37.2 0 0
02:05 1026 30.3 855 25.25 3.4 38.1 96 2.8 37.1 0 0
02:10 1026 30.3 855 25.25 3.3 38 96 2.8 37 0 0
02:15 1026 30.3 855 25.25 3.3 38 96 2.8 37 0 0
02:20 1026 30.3 855 25.25 3.2 37.8 97 2.7 36.9 0 0
02:25 1026 30.3 855 25.25 3.2 37.7 97 2.7 36.9 0 0
02:30 1026 30.3 855 25.25 3.2 37.7 97 2.7 36.9 0 0
02:35 1026 30.3 855 25.25 3.2 37.7 97 2.7 36.9 0 0
02:40 1026 30.3 855 25.25 3.2 37.7 97 2.7 36.9 0 0
02:45 1026 30.3 855 25.25 3.1 37.7 97 2.7 36.8 0 0
02:50 1026 30.3 855 25.25 3.1 37.5 97 2.6 36.7 0 0
02:55 1026 30.3 855 25.25 3 37.3 97 2.5 36.6 0 0
03:00 1025 30.27 855 25.25 2.9 37.2 97 2.5 36.4 0 0
03:05 1025 30.27 855 25.25 2.8 37.1 97 2.4 36.4 0 0
03:10 1025 30.27 855 25.25 2.8 37 97 2.4 36.3 0 0
03:15 1026 30.3 855 25.25 2.8 37 97 2.4 36.3 0 0
03:20 1026 30.3 855 25.25 2.8 37 97 2.4 36.2 0 0
03:25 1026 30.3 855 25.25 2.7 36.8 97 2.3 36.1 0 0
03:30 1026 30.3 855 25.25 2.6 36.7 98 2.3 36.1 0 0
03:35 1026 30.3 855 25.25 2.6 36.7 98 2.2 36 0 0
03:40 1026 30.3 855 25.25 2.6 36.7 98 2.3 36.1 0 0
03:45 1026 30.3 855 25.25 2.7 36.8 98 2.3 36.2 0 0
03:50 1026 30.3 855 25.25 2.7 36.9 97 2.4 36.3 0 0
03:55 1026 30.3 855 25.25 2.8 37.1 97 2.4 36.3 0 0
04:00 1026 30.3 855 25.25 3 37.4 96 2.5 36.5 0 0
04:05 1026 30.3 855 25.25 3 37.3 96 2.4 36.3 0 0
04:10 1026 30.3 855 25.25 2.9 37.2 97 2.4 36.4 0 0
04:15 1026 30.3 855 25.25 2.9 37.2 97 2.4 36.3 0 0
04:20 1026 30.3 855 25.25 2.9 37.2 97 2.4 36.4 0 0
04:25 1026 30.3 855 25.25 2.8 37.1 97 2.4 36.4 0 0
04:30 1026 30.3 855 25.25 2.8 37.1 97 2.4 36.4 0 0
04:35 1026 30.3 855 25.25 2.9 37.2 97 2.5 36.5 0 0
04:40 1026 30.3 855 25.25 2.9 37.3 97 2.6 36.6 0 0
04:45 1026 30.3 855 25.25 3 37.3 97 2.6 36.6 .2 0.008
04:50 1026 30.3 855 25.25 3 37.4 98 2.7 36.8 0 0
04:55 1026 30.3 855 25.25 3 37.4 98 2.7 36.8 0 0
05:00 1026 30.3 855 25.25 3 37.4 98 2.7 36.8 0 0
05:05 1026 30.3 855 25.25 3 37.5 98 2.7 36.9 0 0
05:10 1026 30.3 855 25.25 3 37.4 98 2.7 36.8 0 0
05:15 1026 30.3 855 25.25 3 37.5 98 2.7 36.8 0 0
05:20 1026 30.3 855 25.25 3 37.4 97 2.7 36.8 0 0
05:25 1026 30.3 855 25.25 3 37.4 97 2.6 36.7 0 0
05:30 1026 30.3 855 25.25 3 37.3 97 2.6 36.7 0 0
05:35 1026 30.3 855 25.25 3 37.3 98 2.6 36.7 0 0
05:40 1026 30.3 855 25.25 3 37.4 98 2.6 36.7 0 0
05:45 1026 30.3 855 25.25 3 37.4 97 2.6 36.7 0 0
05:50 1026 30.3 855 25.25 3 37.5 97 2.7 36.8 .2 0.008
05:55 1026 30.3 855 25.25 3 37.5 97 2.7 36.8 0 0
06:00 1026 30.3 855 25.25 3.1 37.5 97 2.7 36.8 0 0
06:05 1026 30.3 855 25.25 3.1 37.5 97 2.7 36.8 0 0
06:10 1026 30.3 855 25.25 3.1 37.6 97 2.6 36.8 .2 0.008
06:15 1026 30.3 855 25.25 3.1 37.6 97 2.6 36.8 0 0
06:20 1026 30.3 855 25.25 3.1 37.5 97 2.7 36.8 0 0
06:25 1026 30.3 855 25.25 3 37.5 97 2.7 36.8 .2 0.008
06:30 1026 30.3 855 25.25 3 37.4 98 2.7 36.8 0 0
06:35 1026 30.3 855 25.25 3 37.5 98 2.7 36.9 0 0
06:40 1026 30.3 855 25.25 3.1 37.5 98 2.7 36.9 0 0
06:45 1026 30.3 855 25.25 3.1 37.6 98 2.8 37.1 0 0
06:50 1026 30.3 855 25.25 3.2 37.7 97 2.7 36.9 0 0
06:55 1026 30.3 855 25.25 3.3 37.9 97 2.9 37.2 0 0
07:00 1026 30.3 855 25.25 3.3 38 97 2.9 37.2 0 0
07:05 1026 30.3 855 25.25 3.4 38.2 97 3 37.4 0 0
07:10 1026 30.3 855 25.25 3.5 38.4 96 3 37.4 0 0
07:15 1026 30.3 855 25.25 3.6 38.5 95 2.8 37.1 0 0
07:20 1026 30.3 855 25.25 3.7 38.6 92 2.6 36.6 0 0
07:25 1026 30.3 855 25.25 3.8 38.9 90 2.4 36.3 0 0
07:30 1026 30.3 855 25.25 4 39.1 89 2.3 36.1 0 0
07:35 1026 30.3 855 25.25 4 39.3 88 2.2 35.9 0 0
07:40 1026 30.3 855 25.25 4.1 39.4 87 2.1 35.8 0 0
07:45 1026 30.3 855 25.25 4.2 39.6 86 2.1 35.8 0 0
07:50 1026 30.3 855 25.25 4.3 39.8 85 2 35.6 0 0
07:55 1026 30.3 855 25.25 4.4 40 84 2 35.6 0 0
08:00 1026 30.3 855 25.25 4.5 40 83 1.9 35.4 0 0
08:05 1026 30.3 855 25.25 4.5 40.1 84 2 35.7 0 0
08:10 1026 30.3 855 25.25 4.6 40.2 83 2 35.6 0 0
08:15 1026 30.3 855 25.25 4.8 40.7 84 2.3 36.1 0 0
08:20 1026 30.3 855 25.25 5 40.9 84 2.5 36.4 0 0
08:25 1026 30.3 855 25.25 5 41.1 85 2.8 37 0 0
08:30 1026 30.3 856 25.28 5 41 82 2.3 36.1 0 0
08:35 1026 30.3 856 25.28 4.9 40.8 81 1.9 35.5 0 0
08:40 1026 30.3 856 25.28 4.8 40.7 82 1.9 35.5 0 0
08:45 1026 30.3 856 25.28 4.9 40.8 80 1.7 35.1 0 0
08:50 1026 30.3 856 25.28 4.9 40.8 83 2.2 36 0 0
08:55 1026 30.3 856 25.28 4.9 40.9 80 1.8 35.2 0 0
09:00 1026 30.3 856 25.28 5 40.9 81 1.9 35.4 0 0
09:05 1026 30.3 856 25.28 5 41 82 2.2 35.9 0 0
09:10 1026 30.3 856 25.28 5 41 81 2 35.6 0 0
09:15 1026 30.3 856 25.28 5 41.1 86 2.9 37.2 0 0
09:20 1026 30.3 856 25.28 5.2 41.3 84 2.7 36.9 0 0
09:25 1026 30.3 856 25.28 5.1 41.2 88 3.3 37.9 0 0
09:30 1026 30.3 856 25.28 5.3 41.6 84 2.9 37.2 0 0
09:35 1026 30.3 856 25.28 5.5 41.9 82 2.6 36.6 0 0
09:40 1026 30.3 856 25.28 5.5 41.9 82 2.7 36.8 0 0
09:45 1026 30.3 856 25.28 5.6 42.1 77 1.9 35.3 0 0
09:50 1026 30.3 856 25.28 6 42.7 79 2.6 36.7 0 0
09:55 1026 30.3 856 25.28 6 42.8 78 2.5 36.4 0 0
10:00 1026 30.3 856 25.28 5.8 42.5 80 2.6 36.7 0 0
10:05 1026 30.3 856 25.28 6 42.7 78 2.4 36.3 0 0
10:10 1026 30.3 856 25.28 5.9 42.7 78 2.4 36.3 0 0
10:15 1026 30.3 856 25.28 6 42.8 77 2.3 36.2 0 0
10:20 1026 30.3 856 25.28 6.2 43.1 78 2.6 36.7 0 0
10:25 1026 30.3 856 25.28 6.1 43 76 2.2 35.9 0 0
10:30 1026 30.3 856 25.28 6 42.8 79 2.7 36.8 0 0
10:35 1026 30.3 856 25.28 6.2 43.2 78 2.7 36.9 0 0
10:40 1026 30.3 856 25.28 6.3 43.3 75 2.2 36 0 0
10:45 1026 30.3 856 25.28 6.2 43.1 77 2.5 36.5 0 0
10:50 1026 30.3 856 25.28 6.1 43 76 2.2 36 0 0
10:55 1026 30.3 856 25.28 6.2 43.2 75 2.1 35.8 0 0
11:00 1027 30.33 856 25.28 6.3 43.3 74 2 35.7 0 0
11:05 1027 30.33 856 25.28 6.2 43.1 73 1.8 35.2 .2 0.008
11:10 1027 30.33 856 25.28 6.1 43.1 75 2 35.6 0 0
11:15 1027 30.33 856 25.28 6.3 43.3 77 2.4 36.4 0 0
11:20 1027 30.33 856 25.28 6.1 43 81 3 37.4 0 0
11:25 1027 30.33 856 25.28 6.1 42.9 78 2.5 36.5 0 0
11:30 1027 30.33 856 25.28 6.3 43.3 78 2.8 37 0 0
11:35 1026 30.3 856 25.28 6.5 43.7 75 2.3 36.2 0 0
11:40 1026 30.3 856 25.28 6.6 43.8 75 2.4 36.4 0 0
11:45 1026 30.3 856 25.28 6.7 44 80 3.5 38.4 0 0
11:50 1026 30.3 856 25.28 7.2 45 75 3.1 37.6 0 0
11:55 1026 30.3 856 25.28 7.3 45.1 73 2.7 36.8 0 0
12:00 1026 30.3 856 25.28 7 44.5 74 2.7 36.9 0 0
12:05 1026 30.3 856 25.28 6.9 44.5 74 2.7 36.8 0 0
12:10 1026 30.3 856 25.28 7.1 44.7 74 2.7 36.9 0 0
12:15 1026 30.3 856 25.28 7.6 45.7 73 3.2 37.7 0 0
12:20 1026 30.3 855 25.25 7.8 46.1 70 2.8 37 0 0
12:25 1026 30.3 855 25.25 7.7 45.9 71 2.7 36.9 0 0
12:30 1026 30.3 855 25.25 7.6 45.7 72 2.9 37.2 0 0
12:35 1026 30.3 855 25.25 7.8 46 75 3.5 38.4 0 0
12:40 1026 30.3 855 25.25 8.2 46.8 72 3.4 38.1 0 0
12:45 1026 30.3 855 25.25 8 46.4 72 3.2 37.7 0 0
12:50 1026 30.3 855 25.25 8.2 46.8 68 2.7 36.8 0 0
12:55 1026 30.3 855 25.25 8.4 47.2 69 3.2 37.7 0 0
13:00 1026 30.3 855 25.25 8.9 48 67 3.2 37.7 0 0
13:05 1026 30.3 855 25.25 9 48.1 63 2.4 36.4 0 0
13:10 1026 30.3 855 25.25 8.8 47.8 65 2.7 36.8 0 0
13:15 1026 30.3 855 25.25 9 48.1 70 3.8 38.9 0 0
13:20 1026 30.3 855 25.25 9 48.1 59 1.4 34.5 0 0
13:25 1026 30.3 855 25.25 9.3 48.7 67 3.5 38.4 0 0
13:30 1026 30.3 855 25.25 9.6 49.2 70 4.5 40.1 0 0
13:35 1026 30.3 855 25.25 10.1 50.3 60 2.8 37.1 0 0
13:40 1026 30.3 855 25.25 9.9 49.9 59 2.2 36 0 0
13:45 1026 30.3 855 25.25 9.7 49.4 63 2.9 37.2 0 0
13:50 1025 30.27 855 25.25 9.8 49.7 63 3.1 37.6 0 0
13:55 1025 30.27 855 25.25 10.1 50.2 59 2.5 36.6 0 0
14:00 1025 30.27 855 25.25 10.1 50.2 56 1.8 35.3 0 0
14:05 1025 30.27 855 25.25 10.2 50.4 56 1.9 35.5 0 0
14:10 1025 30.27 855 25.25 10.4 50.6 58 2.6 36.7 0 0
14:15 1025 30.27 854 25.22 10.8 51.5 56 2.6 36.6 0 0
14:20 1025 30.27 854 25.22 11.1 51.9 56 2.8 37 0 0
14:25 1025 30.27 854 25.22 11.4 52.4 59 3.8 38.8 0 0
14:30 1025 30.27 854 25.22 11.6 52.9 55 2.8 37.1 0 0
14:35 1025 30.27 854 25.22 11.7 53 49 1.2 34.2 0 0
14:40 1025 30.27 854 25.22 11.5 52.8 50 1.6 34.9 0 0
14:45 1025 30.27 854 25.22 11.5 52.6 56 3 37.4 0 0
14:50 1025 30.27 854 25.22 11.9 53.3 46 0.8 33.4 0 0
14:55 1025 30.27 854 25.22 11.6 52.8 57 3.5 38.3 0 0
15:00 1025 30.27 854 25.22 11.9 53.4 47 1 33.8 0 0
15:05 1025 30.27 854 25.22 10.8 51.4 49 0.5 33 0 0
15:10 1025 30.27 854 25.22 10.6 51.1 53 1.6 34.8 0 0
15:15 1025 30.27 854 25.22 11.2 52.1 52 1.8 35.2 0 0
15:20 1025 30.27 854 25.22 11.3 52.3 50 1.3 34.3 0 0
15:25 1025 30.27 854 25.22 11.5 52.8 53 2.3 36.1 0 0
15:30 1025 30.27 854 25.22 11.2 52.2 50 1.2 34.1 0 0
15:35 1025 30.27 854 25.22 11 51.8 49 0.9 33.6 0 0
15:40 1025 30.27 854 25.22 10.5 50.8 52 1.1 34 0 0
15:45 1025 30.27 854 25.22 10.4 50.6 52 0.9 33.6 0 0
15:50 1025 30.27 854 25.22 10.3 50.6 49 0.2 32.3 0 0
15:55 1025 30.27 854 25.22 10.8 51.5 50 0.9 33.6 0 0
16:00 1025 30.27 854 25.22 10.9 51.5 52 1.4 34.6 0 0
16:05 1025 30.27 854 25.22 10.4 50.8 51 0.8 33.5 0 0
16:10 1025 30.27 854 25.22 11.1 51.9 51 1.5 34.7 0 0
16:15 1025 30.27 854 25.22 11.3 52.3 51 1.5 34.6 0 0
16:20 1025 30.27 854 25.22 11.5 52.6 49 1.1 34.1 0 0
16:25 1025 30.27 854 25.22 11.5 52.8 49 1.3 34.3 0 0
16:30 1025 30.27 854 25.22 11.4 52.6 52 1.9 35.4 0 0
16:35 1025 30.27 854 25.22 10.6 51 53 1.4 34.6 0 0
16:40 1025 30.27 854 25.22 11.2 52.1 51 1.4 34.6 0 0
16:45 1025 30.27 854 25.22 11.5 52.7 47 0.8 33.4 0 0
16:50 1025 30.27 854 25.22 11.1 51.9 50 1.1 33.9 0 0
16:55 1025 30.27 854 25.22 10.9 51.6 49 0.7 33.2 0 0
17:00 1025 30.27 854 25.22 10.9 51.6 51 1.3 34.3 0 0
17:05 1024 30.24 854 25.22 11 51.8 52 1.6 34.9 0 0
17:10 1024 30.24 854 25.22 10.7 51.3 54 1.8 35.2 0 0
17:15 1024 30.24 854 25.22 10.8 51.4 50 0.9 33.6 0 0
17:20 1025 30.27 854 25.22 10.7 51.3 49 0.5 32.9 0 0
17:25 1025 30.27 854 25.22 10.6 51.2 50 0.7 33.3 0 0
17:30 1025 30.27 854 25.22 10.6 51 51 0.8 33.4 0 0
17:35 1025 30.27 854 25.22 10.8 51.5 51 1 33.9 0 0
17:40 1025 30.27 854 25.22 10.7 51.3 50 0.8 33.4 0 0
17:45 1025 30.27 854 25.22 10.6 51.2 50 0.7 33.2 0 0
17:50 1025 30.27 854 25.22 10.9 51.7 49 0.7 33.2 0 0
17:55 1025 30.27 854 25.22 10.7 51.3 51 1 33.9 0 0
18:00 1025 30.27 854 25.22 10.6 51 50 0.7 33.3 0 0
18:05 1025 30.27 854 25.22 10.5 50.8 51 0.7 33.2 0 0
18:10 1025 30.27 854 25.22 10.5 51 53 1.5 34.7 0 0
18:15 1025 30.27 854 25.22 10.8 51.5 51 1 33.9 0 0
18:20 1025 30.27 854 25.22 10.7 51.2 53 1.4 34.6 0 0
18:25 1025 30.27 854 25.22 10.4 50.7 50 0.6 33 0 0
18:30 1025 30.27 854 25.22 10.3 50.6 51 0.8 33.4 0 0
18:35 1025 30.27 854 25.22 10.5 50.8 51 0.8 33.4 0 0
18:40 1025 30.27 854 25.22 10.3 50.6 51 0.6 33.2 0 0
18:45 1025 30.27 854 25.22 10.2 50.4 53 1 33.7 0 0
18:50 1025 30.27 854 25.22 10.3 50.5 54 1.3 34.4 0 0
18:55 1025 30.27 854 25.22 10.1 50.1 55 1.5 34.7 0 0
19:00 1025 30.27 854 25.22 9.8 49.6 55 1.2 34.2 0 0
19:05 1025 30.27 854 25.22 9.8 49.7 56 1.6 34.9 0 0
19:10 1025 30.27 854 25.22 9.8 49.6 58 1.9 35.5 0 0
19:15 1025 30.27 854 25.22 9.4 48.9 59 1.8 35.3 0 0
19:20 1025 30.27 854 25.22 8.7 47.7 63 2.2 35.9 0 0
19:25 1025 30.27 854 25.22 8.2 46.8 63 1.7 35.1 0 0
19:30 1025 30.27 854 25.22 8.3 46.9 63 1.7 35.1 0 0
19:35 1025 30.27 854 25.22 8.1 46.6 65 2 35.6 0 0
19:40 1025 30.27 854 25.22 7.8 46 67 2 35.5 0 0
19:45 1025 30.27 854 25.22 7.5 45.5 67 1.8 35.2 0 0
19:50 1025 30.27 854 25.22 7.3 45.1 67 1.6 34.9 0 0
19:55 1025 30.27 854 25.22 7 44.7 68 1.6 34.9 0 0
20:00 1025 30.27 854 25.22 6.9 44.4 69 1.6 35 0 0
20:05 1025 30.27 854 25.22 6.8 44.2 70 1.7 35 0 0
20:10 1025 30.27 854 25.22 6.7 44.1 69 1.6 34.8 0 0
20:15 1025 30.27 854 25.22 6.7 44.1 69 1.6 34.8 0 0
20:20 1025 30.27 854 25.22 6.6 43.8 70 1.5 34.7 0 0
20:25 1025 30.27 854 25.22 6.5 43.7 70 1.4 34.5 0 0
20:30 1025 30.27 854 25.22 6.4 43.6 71 1.6 34.8 0 0
20:35 1025 30.27 854 25.22 6.3 43.4 71 1.5 34.7 0 0
20:40 1025 30.27 854 25.22 6.4 43.5 71 1.5 34.7 0 0
20:45 1025 30.27 854 25.22 6.4 43.5 71 1.6 34.9 0 0
20:50 1025 30.27 854 25.22 6.3 43.4 72 1.6 34.9 0 0
20:55 1025 30.27 854 25.22 6.4 43.6 69 1.1 34 0 0
21:00 1025 30.27 854 25.22 6.6 43.8 69 1.4 34.5 0 0
21:05 1024 30.24 854 25.22 6.4 43.6 69 1.3 34.3 0 0
21:10 1025 30.27 854 25.22 6.4 43.4 69 1.1 33.9 0 0
21:15 1025 30.27 854 25.22 6.3 43.3 69 1 33.9 0 0
21:20 1025 30.27 854 25.22 6.3 43.3 69 1 33.8 0 0
21:25 1025 30.27 854 25.22 6.2 43.2 69 0.9 33.5 0 0
21:30 1025 30.27 854 25.22 6.3 43.3 69 0.9 33.6 0 0
21:35 1025 30.27 854 25.22 6.2 43.2 69 1 33.7 0 0
21:40 1025 30.27 854 25.22 6.3 43.3 68 0.8 33.5 0 0
21:45 1025 30.27 854 25.22 6.3 43.3 69 1 33.9 0 0
21:50 1025 30.27 854 25.22 6.3 43.3 68 0.8 33.4 0 0
21:55 1025 30.27 854 25.22 6.5 43.6 68 0.9 33.7 0 0
22:00 1025 30.27 854 25.22 6.5 43.6 68 0.9 33.7 0 0
22:05 1025 30.27 854 25.22 6.6 43.9 67 1 33.8 0 0
22:10 1025 30.27 854 25.22 6.7 44 67 1.1 33.9 0 0
22:15 1025 30.27 854 25.22 6.7 44 68 1.2 34.2 0 0
22:20 1025 30.27 854 25.22 6.6 43.9 69 1.4 34.4 0 0
22:25 1025 30.27 854 25.22 6.5 43.7 69 1.3 34.4 0 0
22:30 1025 30.27 854 25.22 6.5 43.6 69 1.3 34.3 0 0
22:35 1025 30.27 854 25.22 6.4 43.6 70 1.3 34.3 0 0
22:40 1025 30.27 854 25.22 6.4 43.5 70 1.4 34.4 0 0
22:45 1025 30.27 854 25.22 6.3 43.4 70 1.3 34.3 0 0
22:50 1025 30.27 854 25.22 6.3 43.4 70 1.3 34.3 0 0
22:55 1024 30.24 854 25.22 6.3 43.3 70 1.2 34.2 0 0
23:00 1025 30.27 854 25.22 6.3 43.3 69 1.1 33.9 0 0
23:05 1025 30.27 854 25.22 6.3 43.3 68 0.9 33.7 0 0
23:10 1025 30.27 854 25.22 6.3 43.3 68 0.8 33.4 0 0
23:15 1025 30.27 854 25.22 6.3 43.4 68 0.8 33.4 0 0
23:20 1025 30.27 854 25.22 6.4 43.6 67 0.7 33.3 0 0
23:25 1025 30.27 854 25.22 6.4 43.5 67 0.7 33.3 0 0
23:30 1024 30.24 854 25.22 6.4 43.5 66 0.6 33.1 0 0
23:35 1024 30.24 854 25.22 6.4 43.5 66 0.6 33 0 0
23:40 1024 30.24 854 25.22 6.4 43.6 67 0.7 33.3 0 0
23:45 1024 30.24 854 25.22 6.4 43.5 66 0.5 33 0 0
23:50 1024 30.24 854 25.22 6.5 43.6 66 0.5 32.9 0 0
23:55 1024 30.24 854 25.22 6.4 43.6 65 0.4 32.7 0 0
24:00 1024 30.24 854 25.22 6.5 43.7 65 0.4 32.7 0 0